sensor_id;sensor_type;location;lat;lon;timestamp;pressure;altitude;pressure_sealevel;temperature;humidity
49459;BME280;35354;51.296;16.924;2022-12-29T00:02:17;99314.13;;;6.24;92.49
49459;BME280;35354;51.296;16.924;2022-12-29T00:04:43;99309.88;;;6.22;92.54
49459;BME280;35354;51.296;16.924;2022-12-29T00:07:10;99302.19;;;6.20;92.36
49459;BME280;35354;51.296;16.924;2022-12-29T00:09:36;99289.25;;;6.20;92.36
49459;BME280;35354;51.296;16.924;2022-12-29T00:12:02;99282.50;;;6.16;92.55
49459;BME280;35354;51.296;16.924;2022-12-29T00:14:28;99280.81;;;6.15;92.13
49459;BME280;35354;51.296;16.924;2022-12-29T00:17:12;99294.53;;;6.17;92.59
49459;BME280;35354;51.296;16.924;2022-12-29T00:19:38;99302.22;;;6.19;92.38
49459;BME280;35354;51.296;16.924;2022-12-29T00:22:22;99278.44;;;6.09;92.03
49459;BME280;35354;51.296;16.924;2022-12-29T00:25:09;99284.41;;;6.11;92.19
49459;BME280;35354;51.296;16.924;2022-12-29T00:27:53;99289.47;;;6.14;91.97
49459;BME280;35354;51.296;16.924;2022-12-29T00:30:37;99288.47;;;6.18;91.94
49459;BME280;35354;51.296;16.924;2022-12-29T00:33:25;99280.13;;;6.10;91.74
49459;BME280;35354;51.296;16.924;2022-12-29T00:36:23;99274.75;;;6.16;91.67
49459;BME280;35354;51.296;16.924;2022-12-29T00:38:54;99268.00;;;6.12;91.44
49459;BME280;35354;51.296;16.924;2022-12-29T00:41:39;99255.25;;;6.06;91.15
49459;BME280;35354;51.296;16.924;2022-12-29T00:44:23;99266.19;;;6.14;91.44
49459;BME280;35354;51.296;16.924;2022-12-29T00:46:49;99249.94;;;6.11;91.18
49459;BME280;35354;51.296;16.924;2022-12-29T00:49:14;99237.97;;;6.08;91.44
49459;BME280;35354;51.296;16.924;2022-12-29T00:51:59;99255.81;;;6.16;91.67
49459;BME280;35354;51.296;16.924;2022-12-29T00:54:24;99249.00;;;6.13;91.59
49459;BME280;35354;51.296;16.924;2022-12-29T00:56:51;99243.03;;;6.11;91.00
49459;BME280;35354;51.296;16.924;2022-12-29T00:59:18;99259.13;;;6.19;91.17
49459;BME280;35354;51.296;16.924;2022-12-29T01:01:44;99247.91;;;6.19;91.03
49459;BME280;35354;51.296;16.924;2022-12-29T01:04:10;99249.56;;;6.21;91.22
49459;BME280;35354;51.296;16.924;2022-12-29T01:06:37;99253.00;;;6.22;91.20
49459;BME280;35354;51.296;16.924;2022-12-29T01:09:03;99256.41;;;6.22;91.47
49459;BME280;35354;51.296;16.924;2022-12-29T01:11:47;99243.88;;;6.12;91.52
49459;BME280;35354;51.296;16.924;2022-12-29T01:14:13;99251.41;;;6.18;91.46
49459;BME280;35354;51.296;16.924;2022-12-29T01:16:39;99237.72;;;6.16;91.54
49459;BME280;35354;51.296;16.924;2022-12-29T01:19:04;99240.47;;;6.11;91.72
49459;BME280;35354;51.296;16.924;2022-12-29T01:21:30;99233.47;;;6.13;91.41
49459;BME280;35354;51.296;16.924;2022-12-29T01:23:55;99242.88;;;6.16;91.80
49459;BME280;35354;51.296;16.924;2022-12-29T01:26:21;99237.72;;;6.16;92.01
49459;BME280;35354;51.296;16.924;2022-12-29T01:28:46;99241.13;;;6.16;91.78
49459;BME280;35354;51.296;16.924;2022-12-29T01:31:13;99230.91;;;6.13;91.77
49459;BME280;35354;51.296;16.924;2022-12-29T01:33:39;99230.13;;;6.11;91.41
49459;BME280;35354;51.296;16.924;2022-12-29T01:36:08;99227.66;;;6.07;91.81
49459;BME280;35354;51.296;16.924;2022-12-29T01:38:35;99230.13;;;6.11;91.89
49459;BME280;35354;51.296;16.924;2022-12-29T01:41:01;99229.41;;;6.06;92.04
49459;BME280;35354;51.296;16.924;2022-12-29T01:43:44;99220.03;;;6.04;91.76
49459;BME280;35354;51.296;16.924;2022-12-29T01:46:18;99220.03;;;6.04;91.24
49459;BME280;35354;51.296;16.924;2022-12-29T01:48:47;99211.59;;;5.98;91.69
49459;BME280;35354;51.296;16.924;2022-12-29T01:51:15;99214.19;;;5.98;91.33
49459;BME280;35354;51.296;16.924;2022-12-29T01:53:42;99209.91;;;5.97;91.39
49459;BME280;35354;51.296;16.924;2022-12-29T01:56:12;99209.91;;;5.97;91.80
49459;BME280;35354;51.296;16.924;2022-12-29T01:58:42;99215.06;;;5.97;91.39
49459;BME280;35354;51.296;16.924;2022-12-29T02:01:09;99205.53;;;5.99;91.41
49459;BME280;35354;51.296;16.924;2022-12-29T02:03:36;99197.03;;;5.96;91.30
49459;BME280;35354;51.296;16.924;2022-12-29T02:06:10;99206.38;;;6.00;91.01
49459;BME280;35354;51.296;16.924;2022-12-29T02:08:38;99196.34;;;5.89;91.01
49459;BME280;35354;51.296;16.924;2022-12-29T02:11:05;99194.56;;;5.93;90.85
49459;BME280;35354;51.296;16.924;2022-12-29T02:13:30;99200.53;;;5.95;90.71
49459;BME280;35354;51.296;16.924;2022-12-29T02:19:03;99191.13;;;5.92;90.97
49459;BME280;35354;51.296;16.924;2022-12-29T02:24:45;99192.88;;;5.92;90.93
49459;BME280;35354;51.296;16.924;2022-12-29T02:30:38;99195.53;;;5.89;90.54
49459;BME280;35354;51.296;16.924;2022-12-29T02:40:50;99158.75;;;5.81;89.38
49459;BME280;35354;51.296;16.924;2022-12-29T02:43:38;99163.75;;;5.85;89.47
49459;BME280;35354;51.296;16.924;2022-12-29T02:46:11;99151.91;;;5.80;89.64
49459;BME280;35354;51.296;16.924;2022-12-29T02:48:43;99146.84;;;5.76;89.62
49459;BME280;35354;51.296;16.924;2022-12-29T02:51:18;99159.47;;;5.86;89.61
49459;BME280;35354;51.296;16.924;2022-12-29T02:53:45;99163.59;;;5.90;89.06
49459;BME280;35354;51.296;16.924;2022-12-29T02:56:30;99161.00;;;5.90;88.70
49459;BME280;35354;51.296;16.924;2022-12-29T02:58:55;99143.78;;;5.90;88.58
49459;BME280;35354;51.296;16.924;2022-12-29T03:07:18;99146.00;;;6.01;88.13
49459;BME280;35354;51.296;16.924;2022-12-29T03:09:55;99149.25;;;6.06;88.65
49459;BME280;35354;51.296;16.924;2022-12-29T03:12:30;99148.44;;;6.06;88.42
49459;BME280;35354;51.296;16.924;2022-12-29T03:15:32;99149.34;;;6.05;88.40
49459;BME280;35354;51.296;16.924;2022-12-29T03:21:10;99160.97;;;6.16;88.18
49459;BME280;35354;51.296;16.924;2022-12-29T03:23:37;99151.00;;;6.06;88.35
49459;BME280;35354;51.296;16.924;2022-12-29T03:26:08;99166.03;;;6.19;88.66
49459;BME280;35354;51.296;16.924;2022-12-29T03:28:44;99155.53;;;6.24;88.41
49459;BME280;35354;51.296;16.924;2022-12-29T03:31:12;99160.56;;;6.27;89.24
49459;BME280;35354;51.296;16.924;2022-12-29T03:33:41;99145.19;;;6.24;89.18
49459;BME280;35354;51.296;16.924;2022-12-29T03:36:09;99147.59;;;6.29;88.86
49459;BME280;35354;51.296;16.924;2022-12-29T03:38:43;99141.44;;;6.31;88.67
49459;BME280;35354;51.296;16.924;2022-12-29T03:41:12;99144.09;;;6.30;88.45
49459;BME280;35354;51.296;16.924;2022-12-29T03:43:40;99135.53;;;6.28;88.49
49459;BME280;35354;51.296;16.924;2022-12-29T03:46:06;99140.44;;;6.35;88.89
49459;BME280;35354;51.296;16.924;2022-12-29T03:48:31;99138.75;;;6.34;88.87
49459;BME280;35354;51.296;16.924;2022-12-29T03:50:58;99126.00;;;6.30;88.40
49459;BME280;35354;51.296;16.924;2022-12-29T03:53:23;99139.50;;;6.38;88.43
49459;BME280;35354;51.296;16.924;2022-12-29T03:55:49;99131.63;;;6.41;88.12
49459;BME280;35354;51.296;16.924;2022-12-29T03:58:14;99117.88;;;6.39;88.17
49459;BME280;35354;51.296;16.924;2022-12-29T04:00:40;99102.63;;;6.33;87.90
49459;BME280;35354;51.296;16.924;2022-12-29T04:03:05;99111.88;;;6.38;87.63
49459;BME280;35354;51.296;16.924;2022-12-29T04:05:30;99117.81;;;6.40;87.63
49459;BME280;35354;51.296;16.924;2022-12-29T04:07:56;99114.28;;;6.43;87.61
49459;BME280;35354;51.296;16.924;2022-12-29T04:10:21;99106.44;;;6.44;87.38
49459;BME280;35354;51.296;16.924;2022-12-29T04:12:47;99098.94;;;6.38;87.16
49459;BME280;35354;51.296;16.924;2022-12-29T04:15:12;99107.38;;;6.43;86.79
49459;BME280;35354;51.296;16.924;2022-12-29T04:17:38;99095.97;;;6.49;86.92
49459;BME280;35354;51.296;16.924;2022-12-29T04:20:04;99099.56;;;6.45;86.57
49459;BME280;35354;51.296;16.924;2022-12-29T04:22:47;99110.50;;;6.52;86.61
49459;BME280;35354;51.296;16.924;2022-12-29T04:25:13;99117.44;;;6.51;86.75
49459;BME280;35354;51.296;16.924;2022-12-29T04:27:38;99111.31;;;6.54;86.35
49459;BME280;35354;51.296;16.924;2022-12-29T04:30:04;99096.91;;;6.46;86.16
49459;BME280;35354;51.296;16.924;2022-12-29T04:32:29;99115.56;;;6.55;86.42
49459;BME280;35354;51.296;16.924;2022-12-29T04:34:55;99109.59;;;6.53;86.33
49459;BME280;35354;51.296;16.924;2022-12-29T04:37:20;99103.59;;;6.52;86.49
49459;BME280;35354;51.296;16.924;2022-12-29T04:39:45;99104.38;;;6.54;86.05
49459;BME280;35354;51.296;16.924;2022-12-29T04:42:11;99088.03;;;6.54;85.69
49459;BME280;35354;51.296;16.924;2022-12-29T04:44:36;99079.34;;;6.55;85.46
49459;BME280;35354;51.296;16.924;2022-12-29T04:47:01;99084.41;;;6.58;84.75
49459;BME280;35354;51.296;16.924;2022-12-29T04:49:26;99097.88;;;6.66;84.31
49459;BME280;35354;51.296;16.924;2022-12-29T04:51:52;99103.06;;;6.66;84.17
49459;BME280;35354;51.296;16.924;2022-12-29T04:54:17;99091.81;;;6.67;84.36
49459;BME280;35354;51.296;16.924;2022-12-29T04:56:42;99094.31;;;6.68;83.96
49459;BME280;35354;51.296;16.924;2022-12-29T04:59:08;99093.41;;;6.69;83.55
49459;BME280;35354;51.296;16.924;2022-12-29T05:01:33;99089.94;;;6.70;83.37
49459;BME280;35354;51.296;16.924;2022-12-29T05:03:58;99093.09;;;6.77;82.87
49459;BME280;35354;51.296;16.924;2022-12-29T05:06:23;99090.41;;;6.80;82.85
49459;BME280;35354;51.296;16.924;2022-12-29T05:08:49;99088.59;;;6.82;83.01
49459;BME280;35354;51.296;16.924;2022-12-29T05:11:14;99080.13;;;6.79;82.67
49459;BME280;35354;51.296;16.924;2022-12-29T05:13:39;99074.16;;;6.77;82.81
49459;BME280;35354;51.296;16.924;2022-12-29T05:16:05;99071.44;;;6.80;82.71
49459;BME280;35354;51.296;16.924;2022-12-29T05:18:30;99076.56;;;6.81;82.34
49459;BME280;35354;51.296;16.924;2022-12-29T05:20:56;99080.63;;;6.87;82.51
49459;BME280;35354;51.296;16.924;2022-12-29T05:23:21;99070.47;;;6.82;82.16
49459;BME280;35354;51.296;16.924;2022-12-29T05:25:46;99079.59;;;6.91;82.07
49459;BME280;35354;51.296;16.924;2022-12-29T05:28:13;99071.00;;;6.90;82.07
49459;BME280;35354;51.296;16.924;2022-12-29T05:30:39;99041.34;;;6.77;81.88
49459;BME280;35354;51.296;16.924;2022-12-29T05:33:04;99047.97;;;6.84;81.89
49459;BME280;35354;51.296;16.924;2022-12-29T05:35:32;99058.31;;;6.84;82.12
49459;BME280;35354;51.296;16.924;2022-12-29T05:37:57;99053.97;;;6.85;82.45
49459;BME280;35354;51.296;16.924;2022-12-29T05:40:22;99050.63;;;6.83;82.31
49459;BME280;35354;51.296;16.924;2022-12-29T05:42:48;99045.38;;;6.84;82.52
49459;BME280;35354;51.296;16.924;2022-12-29T05:45:13;99043.81;;;6.80;82.37
49459;BME280;35354;51.296;16.924;2022-12-29T05:47:39;99062.38;;;6.90;82.49
49459;BME280;35354;51.296;16.924;2022-12-29T05:50:05;99046.28;;;6.83;82.26
49459;BME280;35354;51.296;16.924;2022-12-29T05:52:30;99064.78;;;6.94;81.83
49459;BME280;35354;51.296;16.924;2022-12-29T05:54:55;99058.72;;;6.95;82.13
49459;BME280;35354;51.296;16.924;2022-12-29T05:57:21;99051.91;;;6.93;81.94
49459;BME280;35354;51.296;16.924;2022-12-29T05:59:46;99044.06;;;6.94;82.13
49459;BME280;35354;51.296;16.924;2022-12-29T06:02:11;99049.13;;;6.97;81.36
49459;BME280;35354;51.296;16.924;2022-12-29T06:04:37;99046.66;;;6.94;81.45
49459;BME280;35354;51.296;16.924;2022-12-29T06:07:02;99055.94;;;7.00;81.53
49459;BME280;35354;51.296;16.924;2022-12-29T06:09:27;99052.56;;;6.98;81.51
49459;BME280;35354;51.296;16.924;2022-12-29T06:11:53;99056.91;;;6.97;81.37
49459;BME280;35354;51.296;16.924;2022-12-29T06:14:18;99048.38;;;6.95;81.63
49459;BME280;35354;51.296;16.924;2022-12-29T06:16:43;99044.16;;;6.93;81.20
49459;BME280;35354;51.296;16.924;2022-12-29T06:19:09;99061.06;;;7.02;81.28
49459;BME280;35354;51.296;16.924;2022-12-29T06:21:34;99035.44;;;6.95;81.58
49459;BME280;35354;51.296;16.924;2022-12-29T06:24:00;99038.78;;;6.97;81.20
49459;BME280;35354;51.296;16.924;2022-12-29T06:26:25;99035.59;;;6.91;81.14
49459;BME280;35354;51.296;16.924;2022-12-29T06:28:50;99049.41;;;6.91;81.46
49459;BME280;35354;51.296;16.924;2022-12-29T06:31:16;99061.47;;;6.91;81.19
49459;BME280;35354;51.296;16.924;2022-12-29T06:33:41;99051.38;;;6.85;81.46
49459;BME280;35354;51.296;16.924;2022-12-29T06:36:07;99059.81;;;6.90;81.62
49459;BME280;35354;51.296;16.924;2022-12-29T06:38:32;99058.06;;;6.90;81.68
49459;BME280;35354;51.296;16.924;2022-12-29T06:40:57;99061.44;;;6.92;81.41
49459;BME280;35354;51.296;16.924;2022-12-29T06:43:23;99056.84;;;6.99;81.68
49459;BME280;35354;51.296;16.924;2022-12-29T06:45:48;99053.47;;;6.97;81.38
49459;BME280;35354;51.296;16.924;2022-12-29T06:48:13;99059.38;;;7.00;80.58
49459;BME280;35354;51.296;16.924;2022-12-29T06:50:39;99052.69;;;6.95;80.57
49459;BME280;35354;51.296;16.924;2022-12-29T06:53:04;99059.19;;;7.05;80.34
49459;BME280;35354;51.296;16.924;2022-12-29T06:55:29;99070.25;;;7.09;80.82
49459;BME280;35354;51.296;16.924;2022-12-29T06:57:56;99065.13;;;7.07;80.88
49459;BME280;35354;51.296;16.924;2022-12-29T07:00:23;99071.03;;;7.11;81.04
49459;BME280;35354;51.296;16.924;2022-12-29T07:02:48;99062.59;;;7.06;80.69
49459;BME280;35354;51.296;16.924;2022-12-29T07:05:13;99073.56;;;7.12;80.90
49459;BME280;35354;51.296;16.924;2022-12-29T07:07:39;99072.66;;;7.13;80.85
49459;BME280;35354;51.296;16.924;2022-12-29T07:10:04;99079.50;;;7.14;80.63
49459;BME280;35354;51.296;16.924;2022-12-29T07:12:29;99074.41;;;7.13;80.58
49459;BME280;35354;51.296;16.924;2022-12-29T07:14:55;99058.06;;;7.11;80.49
49459;BME280;35354;51.296;16.924;2022-12-29T07:17:20;99067.19;;;7.19;80.80
49459;BME280;35354;51.296;16.924;2022-12-29T07:19:45;99066.38;;;7.19;80.72
49459;BME280;35354;51.296;16.924;2022-12-29T07:22:11;99076.28;;;7.30;80.90
49459;BME280;35354;51.296;16.924;2022-12-29T07:24:36;99075.38;;;7.31;80.60
49459;BME280;35354;51.296;16.924;2022-12-29T07:27:01;99065.13;;;7.28;80.91
49459;BME280;35354;51.296;16.924;2022-12-29T07:29:27;99067.53;;;7.32;80.70
49459;BME280;35354;51.296;16.924;2022-12-29T07:31:52;99065.66;;;7.36;80.46
49459;BME280;35354;51.296;16.924;2022-12-29T07:34:17;99055.22;;;7.37;80.35
49459;BME280;35354;51.296;16.924;2022-12-29T07:36:43;99066.25;;;7.42;80.57
49459;BME280;35354;51.296;16.924;2022-12-29T07:39:08;99060.03;;;7.46;80.45
49459;BME280;35354;51.296;16.924;2022-12-29T07:41:33;99049.19;;;7.37;80.24
49459;BME280;35354;51.296;16.924;2022-12-29T07:44:00;99070.22;;;7.49;80.50
49459;BME280;35354;51.296;16.924;2022-12-29T07:46:25;99059.03;;;7.49;80.25
49459;BME280;35354;51.296;16.924;2022-12-29T07:48:50;99062.41;;;7.51;80.26
49459;BME280;35354;51.296;16.924;2022-12-29T07:51:15;99064.59;;;7.60;80.32
49459;BME280;35354;51.296;16.924;2022-12-29T07:53:41;99054.44;;;7.56;80.16
49459;BME280;35354;51.296;16.924;2022-12-29T07:56:06;99071.41;;;7.63;80.35
49459;BME280;35354;51.296;16.924;2022-12-29T07:58:31;99082.44;;;7.66;80.21
49459;BME280;35354;51.296;16.924;2022-12-29T08:00:57;99073.09;;;7.64;80.43
49459;BME280;35354;51.296;16.924;2022-12-29T08:03:23;99083.78;;;7.75;80.14
49459;BME280;35354;51.296;16.924;2022-12-29T08:05:50;99069.28;;;7.71;80.24
49459;BME280;35354;51.296;16.924;2022-12-29T08:08:15;99075.63;;;7.84;80.30
49459;BME280;35354;51.296;16.924;2022-12-29T08:10:41;99072.06;;;7.87;79.98
49459;BME280;35354;51.296;16.924;2022-12-29T08:13:06;99074.81;;;7.84;79.82
49459;BME280;35354;51.296;16.924;2022-12-29T08:15:31;99077.81;;;7.93;79.76
49459;BME280;35354;51.296;16.924;2022-12-29T08:17:56;99087.97;;;7.98;79.94
49459;BME280;35354;51.296;16.924;2022-12-29T08:20:22;99062.31;;;7.92;79.90
49459;BME280;35354;51.296;16.924;2022-12-29T08:22:47;99070.75;;;7.97;80.06
49459;BME280;35354;51.296;16.924;2022-12-29T08:25:13;99071.28;;;8.04;80.19
49459;BME280;35354;51.296;16.924;2022-12-29T08:27:38;99063.50;;;8.04;80.29
49459;BME280;35354;51.296;16.924;2022-12-29T08:30:04;99065.84;;;8.10;80.12
49459;BME280;35354;51.296;16.924;2022-12-29T08:32:29;99069.81;;;8.17;80.34
49459;BME280;35354;51.296;16.924;2022-12-29T08:34:55;99047.53;;;8.13;80.11
49459;BME280;35354;51.296;16.924;2022-12-29T08:37:20;99065.31;;;8.20;80.17
49459;BME280;35354;51.296;16.924;2022-12-29T08:39:45;99061.91;;;8.20;80.48
49459;BME280;35354;51.296;16.924;2022-12-29T08:42:11;99069.56;;;8.23;80.13
49459;BME280;35354;51.296;16.924;2022-12-29T08:44:36;99055.03;;;8.19;80.42
49459;BME280;35354;51.296;16.924;2022-12-29T08:47:01;99074.44;;;8.29;80.50
49459;BME280;35354;51.296;16.924;2022-12-29T08:49:27;99071.22;;;8.24;80.41
49459;BME280;35354;51.296;16.924;2022-12-29T08:51:52;99086.53;;;8.30;80.39
49459;BME280;35354;51.296;16.924;2022-12-29T08:54:18;99086.34;;;8.33;80.45
49459;BME280;35354;51.296;16.924;2022-12-29T08:56:43;99074.38;;;8.31;80.38
49459;BME280;35354;51.296;16.924;2022-12-29T08:59:08;99071.44;;;8.38;80.29
49459;BME280;35354;51.296;16.924;2022-12-29T09:01:34;99070.25;;;8.45;80.09
49459;BME280;35354;51.296;16.924;2022-12-29T09:04:01;99076.13;;;8.49;80.03
49459;BME280;35354;51.296;16.924;2022-12-29T09:06:27;99074.16;;;8.54;79.87
49459;BME280;35354;51.296;16.924;2022-12-29T09:08:53;99068.00;;;8.57;79.67
49459;BME280;35354;51.296;16.924;2022-12-29T09:11:22;99074.72;;;8.61;79.86
49459;BME280;35354;51.296;16.924;2022-12-29T09:13:48;99066.31;;;8.56;79.66
49459;BME280;35354;51.296;16.924;2022-12-29T09:16:13;99075.69;;;8.58;79.40
49459;BME280;35354;51.296;16.924;2022-12-29T09:18:39;99077.19;;;8.64;79.69
49459;BME280;35354;51.296;16.924;2022-12-29T09:21:06;99078.63;;;8.69;79.71
49459;BME280;35354;51.296;16.924;2022-12-29T09:23:32;99077.63;;;8.72;79.54
49459;BME280;35354;51.296;16.924;2022-12-29T09:25:57;99085.22;;;8.77;79.64
49459;BME280;35354;51.296;16.924;2022-12-29T09:28:23;99073.97;;;8.76;79.60
49459;BME280;35354;51.296;16.924;2022-12-29T09:30:49;99081.47;;;8.82;79.54
49459;BME280;35354;51.296;16.924;2022-12-29T09:33:15;99092.47;;;8.87;79.77
49459;BME280;35354;51.296;16.924;2022-12-29T09:35:45;99066.66;;;8.84;79.71
49459;BME280;35354;51.296;16.924;2022-12-29T09:38:14;99066.41;;;8.89;79.55
49459;BME280;35354;51.296;16.924;2022-12-29T09:40:41;99059.31;;;8.92;79.58
49459;BME280;35354;51.296;16.924;2022-12-29T09:46:00;99069.81;;;9.08;79.48
49459;BME280;35354;51.296;16.924;2022-12-29T09:48:36;99054.59;;;9.00;79.34
49459;BME280;35354;51.296;16.924;2022-12-29T09:51:08;99067.91;;;9.12;79.35
49459;BME280;35354;51.296;16.924;2022-12-29T09:53:41;99070.34;;;9.15;79.28
49459;BME280;35354;51.296;16.924;2022-12-29T09:56:18;99066.00;;;9.15;79.27
49459;BME280;35354;51.296;16.924;2022-12-29T09:58:59;99056.66;;;9.11;78.74
49459;BME280;35354;51.296;16.924;2022-12-29T10:01:44;99063.63;;;9.11;78.65
49459;BME280;35354;51.296;16.924;2022-12-29T10:04:11;99062.56;;;8.97;78.77
49459;BME280;35354;51.296;16.924;2022-12-29T10:07:01;99066.72;;;8.83;79.42
49459;BME280;35354;51.296;16.924;2022-12-29T10:14:43;99061.19;;;8.35;81.11
49459;BME280;35354;51.296;16.924;2022-12-29T10:17:42;99061.47;;;8.29;81.66
49459;BME280;35354;51.296;16.924;2022-12-29T10:23:31;99052.97;;;8.25;82.42
49459;BME280;35354;51.296;16.924;2022-12-29T10:25:59;99033.50;;;8.17;82.66
49459;BME280;35354;51.296;16.924;2022-12-29T10:28:42;99029.84;;;8.21;82.45
49459;BME280;35354;51.296;16.924;2022-12-29T10:31:44;99044.22;;;8.28;82.57
49459;BME280;35354;51.296;16.924;2022-12-29T10:36:54;99034.06;;;8.23;83.02
49459;BME280;35354;51.296;16.924;2022-12-29T10:39:32;99038.34;;;8.24;83.19
49459;BME280;35354;51.296;16.924;2022-12-29T10:42:28;99020.31;;;8.21;83.44
49459;BME280;35354;51.296;16.924;2022-12-29T10:44:54;99020.69;;;8.14;83.66
49459;BME280;35354;51.296;16.924;2022-12-29T10:47:34;99036.94;;;8.17;83.72
49459;BME280;35354;51.296;16.924;2022-12-29T10:50:02;99017.94;;;8.17;83.80
49459;BME280;35354;51.296;16.924;2022-12-29T10:52:28;99024.88;;;8.16;83.95
49459;BME280;35354;51.296;16.924;2022-12-29T10:55:15;99020.47;;;8.18;83.95
49459;BME280;35354;51.296;16.924;2022-12-29T10:57:44;99012.13;;;8.12;84.27
49459;BME280;35354;51.296;16.924;2022-12-29T11:00:14;99029.84;;;8.21;84.45
49459;BME280;35354;51.296;16.924;2022-12-29T11:02:50;99029.84;;;8.21;84.26
49459;BME280;35354;51.296;16.924;2022-12-29T11:05:34;99022.06;;;8.21;84.10
49459;BME280;35354;51.296;16.924;2022-12-29T11:08:10;99018.16;;;8.12;83.89
49459;BME280;35354;51.296;16.924;2022-12-29T11:10:40;99028.25;;;8.18;83.46
49459;BME280;35354;51.296;16.924;2022-12-29T11:13:16;99016.19;;;8.17;83.05
49459;BME280;35354;51.296;16.924;2022-12-29T11:15:47;99011.69;;;8.21;82.50
49459;BME280;35354;51.296;16.924;2022-12-29T11:18:22;99016.75;;;8.24;82.19
49459;BME280;35354;51.296;16.924;2022-12-29T11:21:00;98998.72;;;8.21;81.76
49459;BME280;35354;51.296;16.924;2022-12-29T11:23:37;99007.59;;;8.34;81.15
49459;BME280;35354;51.296;16.924;2022-12-29T11:28:36;98996.56;;;8.31;80.52
49459;BME280;35354;51.296;16.924;2022-12-29T11:31:04;98990.44;;;8.32;80.22
49459;BME280;35354;51.296;16.924;2022-12-29T11:33:31;98988.06;;;8.27;80.21
49459;BME280;35354;51.296;16.924;2022-12-29T11:36:10;98986.22;;;8.29;80.12
49459;BME280;35354;51.296;16.924;2022-12-29T11:38:40;98989.38;;;8.36;79.99
49459;BME280;35354;51.296;16.924;2022-12-29T11:41:06;98986.78;;;8.36;80.11
49459;BME280;35354;51.296;16.924;2022-12-29T11:43:41;98978.22;;;8.34;79.87
49459;BME280;35354;51.296;16.924;2022-12-29T11:46:15;98992.53;;;8.42;79.88
49459;BME280;35354;51.296;16.924;2022-12-29T11:48:42;98978.66;;;8.43;79.87
49459;BME280;35354;51.296;16.924;2022-12-29T11:51:09;98975.44;;;8.38;79.63
49459;BME280;35354;51.296;16.924;2022-12-29T11:53:45;98985.44;;;8.46;80.07
49459;BME280;35354;51.296;16.924;2022-12-29T11:56:15;98998.38;;;8.47;79.98
49459;BME280;35354;51.296;16.924;2022-12-29T11:58:41;99001.84;;;8.46;80.29
49459;BME280;35354;51.296;16.924;2022-12-29T12:01:13;98988.22;;;8.43;80.80
49459;BME280;35354;51.296;16.924;2022-12-29T12:04:13;98989.19;;;8.40;81.29
49459;BME280;35354;51.296;16.924;2022-12-29T12:06:44;98983.31;;;8.37;81.75
49459;BME280;35354;51.296;16.924;2022-12-29T12:09:24;98980.75;;;8.35;82.09
49459;BME280;35354;51.296;16.924;2022-12-29T12:11:53;98991.78;;;8.40;82.42
49459;BME280;35354;51.296;16.924;2022-12-29T12:14:30;98976.22;;;8.40;82.22
49459;BME280;35354;51.296;16.924;2022-12-29T12:17:08;98979.97;;;8.33;82.22
49459;BME280;35354;51.296;16.924;2022-12-29T12:19:42;98979.00;;;8.36;82.58
49459;BME280;35354;51.296;16.924;2022-12-29T12:22:35;98973.47;;;8.43;81.88
49459;BME280;35354;51.296;16.924;2022-12-29T12:25:04;98972.56;;;8.44;81.88
49459;BME280;35354;51.296;16.924;2022-12-29T12:27:41;98971.72;;;8.44;82.03
49459;BME280;35354;51.296;16.924;2022-12-29T12:30:17;98966.59;;;8.42;81.84
49459;BME280;35354;51.296;16.924;2022-12-29T12:32:48;98968.44;;;8.40;81.61
49459;BME280;35354;51.296;16.924;2022-12-29T12:51:24;98971.78;;;8.42;82.46
49459;BME280;35354;51.296;16.924;2022-12-29T13:10:42;98971.19;;;8.18;83.23
49459;BME280;35354;51.296;16.924;2022-12-29T13:13:35;98975.53;;;8.18;83.17
49459;BME280;35354;51.296;16.924;2022-12-29T13:18:56;98950.81;;;7.92;83.71
49459;BME280;35354;51.296;16.924;2022-12-29T13:27:19;98968.81;;;7.95;84.10
49459;BME280;35354;51.296;16.924;2022-12-29T13:29:54;98963.03;;;7.90;84.65
49459;BME280;35354;51.296;16.924;2022-12-29T13:35:16;98991.25;;;7.96;84.41
49459;BME280;35354;51.296;16.924;2022-12-29T13:37:54;98978.19;;;7.80;84.45
49459;BME280;35354;51.296;16.924;2022-12-29T13:40:24;98988.94;;;7.90;84.83
49459;BME280;35354;51.296;16.924;2022-12-29T13:42:52;98975.72;;;7.77;84.63
49459;BME280;35354;51.296;16.924;2022-12-29T13:45:21;98991.13;;;7.80;84.57
49459;BME280;35354;51.296;16.924;2022-12-29T13:48:10;98990.47;;;7.75;84.97
49459;BME280;35354;51.296;16.924;2022-12-29T13:50:40;99000.38;;;7.86;84.94
49459;BME280;35354;51.296;16.924;2022-12-29T13:53:27;99007.09;;;7.90;85.17
49459;BME280;35354;51.296;16.924;2022-12-29T13:56:17;99000.50;;;7.83;85.44
49459;BME280;35354;51.296;16.924;2022-12-29T14:02:01;98988.38;;;7.83;85.60
49459;BME280;35354;51.296;16.924;2022-12-29T14:04:30;99011.38;;;7.91;85.78
49459;BME280;35354;51.296;16.924;2022-12-29T14:07:17;98999.69;;;8.01;85.88
49459;BME280;35354;51.296;16.924;2022-12-29T14:09:45;99007.84;;;8.11;85.18
49459;BME280;35354;51.296;16.924;2022-12-29T14:15:23;98999.72;;;8.18;85.49
49459;BME280;35354;51.296;16.924;2022-12-29T14:18:22;99002.31;;;8.18;84.93
49459;BME280;35354;51.296;16.924;2022-12-29T14:21:08;99003.44;;;8.13;85.15
49459;BME280;35354;51.296;16.924;2022-12-29T14:28:36;98991.38;;;8.31;85.08
49459;BME280;35354;51.296;16.924;2022-12-29T14:34:15;99005.69;;;8.39;84.93
49459;BME280;35354;51.296;16.924;2022-12-29T14:39:03;99000.97;;;8.29;85.22
49459;BME280;35354;51.296;16.924;2022-12-29T14:41:35;99002.00;;;8.24;85.16
49459;BME280;35354;51.296;16.924;2022-12-29T14:44:15;99004.38;;;8.29;85.30
49459;BME280;35354;51.296;16.924;2022-12-29T14:46:46;99002.63;;;8.30;85.00
49459;BME280;35354;51.296;16.924;2022-12-29T14:49:19;98988.13;;;8.25;85.14
49459;BME280;35354;51.296;16.924;2022-12-29T14:51:46;99001.09;;;8.25;84.98
49459;BME280;35354;51.296;16.924;2022-12-29T14:57:01;98998.03;;;8.17;85.25
49459;BME280;35354;51.296;16.924;2022-12-29T14:59:29;99012.00;;;8.15;85.51
49459;BME280;35354;51.296;16.924;2022-12-29T15:01:55;98999.38;;;8.07;85.66